Time;durP1;ratioP1;P1;durP2;ratioP2;P2;SDS_P1;SDS_P2;PMS_P1;PMS_P2;Temp;Humidity;BMP_temperature;BMP_pressure;BME280_temperature;BME280_humidity;BME280_pressure;Samples;Min_cycle;Max_cycle;Signal;HPM_P1;HPM_P2
2023/05/09 00:02:06;;;;;;;5.30;4.30;;;;;;;20.47;70.68;100571.50;5069990;28;20175;-61
2023/05/09 00:04:32;;;;;;;4.90;4.07;;;;;;;20.46;70.64;100558.38;5072783;28;20190;-61
2023/05/09 00:06:58;;;;;;;5.80;4.70;;;;;;;20.46;70.84;100560.44;5070791;28;20194;-61
2023/05/09 00:09:24;;;;;;;5.20;4.70;;;;;;;20.45;70.99;100559.63;5069577;28;20452;-61
2023/05/09 00:11:49;;;;;;;6.20;4.40;;;;;;;20.46;71.03;100560.44;5069813;28;20194;-61
2023/05/09 00:14:17;;;;;;;6.20;4.30;;;;;;;20.46;70.90;100561.25;5073594;28;20190;-62
2023/05/09 00:16:43;;;;;;;5.20;4.57;;;;;;;20.46;70.98;100548.97;5052128;28;20193;-61
2023/05/09 00:19:10;;;;;;;5.77;4.60;;;;;;;20.44;71.00;100551.38;5071259;28;21016;-61
2023/05/09 00:21:35;;;;;;;5.20;4.67;;;;;;;20.45;70.88;100547.31;5068736;28;20422;-61
2023/05/09 00:24:01;;;;;;;4.87;4.17;;;;;;;20.45;70.92;100548.13;5069385;28;20187;-62
2023/05/09 00:26:26;;;;;;;5.30;4.30;;;;;;;20.44;70.89;100540.75;5075728;28;20232;-62
2023/05/09 00:28:52;;;;;;;6.80;4.63;;;;;;;20.45;70.37;100548.13;5069208;28;20681;-61
2023/05/09 00:31:19;;;;;;;5.87;4.73;;;;;;;20.45;70.40;100548.13;5051211;28;20515;-61
2023/05/09 00:33:44;;;;;;;4.57;4.07;;;;;;;20.44;70.85;100546.50;5051032;28;20214;-61
2023/05/09 00:36:10;;;;;;;5.50;4.50;;;;;;;20.43;70.50;100529.66;5084768;28;20554;-61
2023/05/09 00:38:35;;;;;;;5.03;4.13;;;;;;;20.44;70.91;100529.28;5069296;28;20178;-60
2023/05/09 00:41:01;;;;;;;5.60;4.17;;;;;;;20.44;70.27;100528.44;5071142;28;20274;-61
2023/05/09 00:43:26;;;;;;;4.37;3.97;;;;;;;20.43;70.62;100527.63;5077093;28;20179;-60
2023/05/09 00:45:52;;;;;;;7.63;4.10;;;;;;;20.44;70.48;100525.56;5089576;28;20174;-61
2023/05/09 00:48:17;;;;;;;4.80;3.90;;;;;;;20.42;70.68;100528.81;5065909;28;20190;-61
2023/05/09 00:50:42;;;;;;;7.83;4.53;;;;;;;20.43;70.69;100527.63;5036870;28;20186;-61
2023/05/09 00:53:08;;;;;;;5.97;4.47;;;;;;;20.43;70.56;100526.81;5072955;28;20178;-61
2023/05/09 00:55:34;;;;;;;4.70;4.17;;;;;;;20.42;70.44;100525.16;5073005;28;20193;-61
2023/05/09 00:58:00;;;;;;;5.23;4.20;;;;;;;20.43;70.46;100524.78;5082881;28;20664;-61
2023/05/09 01:00:25;;;;;;;4.30;3.80;;;;;;;20.43;70.17;100521.91;5093446;28;20173;-61
2023/05/09 01:02:52;;;;;;;4.57;3.80;;;;;;;20.43;69.95;100524.78;5088578;28;20183;-61
2023/05/09 01:05:18;;;;;;;7.17;4.30;;;;;;;20.43;70.45;100524.78;5072426;28;20214;-60
2023/05/09 01:07:50;;;;;;;5.00;4.30;;;;;;;20.42;70.37;100523.09;5072746;28;20425;-61
2023/05/09 01:10:24;;;;;;;4.33;3.87;;;;;;;20.43;70.25;100515.31;5073207;28;20183;-61
2023/05/09 01:12:57;;;;;;;4.70;4.07;;;;;;;20.41;70.49;100512.84;5072759;28;20405;-62
2023/05/09 01:15:44;;;;;;;5.93;3.80;;;;;;;20.42;70.19;100505.88;5072195;28;20477;-61
2023/05/09 01:18:25;;;;;;;6.47;3.93;;;;;;;20.42;70.21;100499.34;5059326;28;20550;-60
2023/05/09 01:21:02;;;;;;;4.60;3.97;;;;;;;20.41;70.30;100487.03;5072691;28;20405;-61
2023/05/09 01:23:43;;;;;;;6.73;4.20;;;;;;;20.42;69.94;100485.81;5056627;28;20966;-60
2023/05/09 01:26:44;;;;;;;7.90;3.83;;;;;;;20.42;70.03;100490.75;5074913;28;20448;-61
2023/05/09 01:29:22;;;;;;;4.80;4.10;;;;;;;20.41;70.20;100498.50;5072308;28;20733;-61
2023/05/09 01:31:50;;;;;;;4.60;3.70;;;;;;;20.41;70.17;100495.63;5073189;28;20519;-60
2023/05/09 01:34:16;;;;;;;5.07;4.57;;;;;;;20.41;69.76;100489.91;5054856;28;20482;-61
2023/05/09 01:36:41;;;;;;;4.93;4.00;;;;;;;20.42;69.74;100490.75;5054155;28;20461;-61
2023/05/09 01:39:07;;;;;;;4.73;3.83;;;;;;;20.41;70.08;100492.75;5033905;28;20184;-61
2023/05/09 01:41:33;;;;;;;6.07;4.10;;;;;;;20.41;69.84;100489.09;5028743;28;20920;-61
2023/05/09 01:43:59;;;;;;;5.20;4.17;;;;;;;20.41;70.24;100489.91;5038199;28;20464;-61
2023/05/09 01:46:25;;;;;;;4.43;4.03;;;;;;;20.41;70.31;100491.97;5054158;28;20171;-61
2023/05/09 01:48:50;;;;;;;4.80;4.30;;;;;;;20.41;70.00;100489.91;5055552;28;20482;-61
2023/05/09 01:51:16;;;;;;;6.00;4.00;;;;;;;20.41;70.05;100486.22;5073767;28;20195;-61
2023/05/09 01:53:41;;;;;;;4.00;3.60;;;;;;;20.41;69.57;100489.91;5072128;28;20164;-60
2023/05/09 01:56:07;;;;;;;4.97;3.90;;;;;;;20.40;70.21;100482.53;5053756;28;20195;-61
2023/05/09 01:58:32;;;;;;;4.30;3.67;;;;;;;20.40;69.89;100482.53;5054065;28;20159;-60
2023/05/09 02:00:59;;;;;;;4.50;3.80;;;;;;;20.40;70.01;100471.06;5056315;28;20185;-61
2023/05/09 02:03:24;;;;;;;4.27;3.80;;;;;;;20.40;69.58;100470.22;5071354;28;20193;-62
2023/05/09 02:05:50;;;;;;;4.63;3.87;;;;;;;20.40;70.05;100471.06;5072230;28;20406;-61
2023/05/09 02:08:19;;;;;;;4.87;3.70;;;;;;;20.41;70.02;100469.03;5037204;28;20190;-62
2023/05/09 02:10:46;;;;;;;4.40;3.70;;;;;;;20.40;69.84;100473.91;5056037;28;20190;-61
2023/05/09 02:13:11;;;;;;;4.90;3.87;;;;;;;20.40;69.91;100471.06;5076075;28;20429;-61
2023/05/09 02:15:37;;;;;;;5.20;4.30;;;;;;;20.40;70.26;100462.44;5071842;28;20495;-61
2023/05/09 02:18:02;;;;;;;3.87;3.20;;;;;;;20.39;69.93;100472.28;5056894;28;20455;-61
2023/05/09 02:20:28;;;;;;;4.13;3.50;;;;;;;20.39;69.97;100478.00;5091006;28;20505;-61
2023/05/09 02:22:53;;;;;;;4.43;3.87;;;;;;;20.40;69.43;100475.94;5078221;28;20197;-61
2023/05/09 02:25:19;;;;;;;5.57;4.20;;;;;;;20.39;69.89;100475.13;5071293;28;20172;-61
2023/05/09 02:27:45;;;;;;;4.20;3.50;;;;;;;20.39;69.40;100480.03;5071485;28;20175;-61
2023/05/09 02:30:13;;;;;;;4.20;3.67;;;;;;;20.39;69.47;100478.00;5052978;28;20163;-62
2023/05/09 02:32:39;;;;;;;4.27;3.47;;;;;;;20.39;69.60;100482.91;5054164;28;21075;-61
2023/05/09 02:35:05;;;;;;;4.47;3.53;;;;;;;20.39;69.85;100474.28;5070010;28;20448;-61
2023/05/09 02:37:31;;;;;;;4.87;3.97;;;;;;;20.39;69.67;100480.03;5052322;28;20202;-61
2023/05/09 02:39:56;;;;;;;5.30;3.60;;;;;;;20.39;69.61;100486.59;5052153;28;20433;-61
2023/05/09 02:42:24;;;;;;;3.97;3.23;;;;;;;20.39;69.47;100471.44;5033470;28;20210;-61
2023/05/09 02:44:52;;;;;;;4.80;3.13;;;;;;;20.38;69.67;100473.50;5051027;28;20160;-61
2023/05/09 02:47:18;;;;;;;3.87;3.47;;;;;;;20.38;69.96;100467.75;5063459;28;20448;-60
2023/05/09 02:49:43;;;;;;;6.03;4.37;;;;;;;20.38;69.81;100464.06;5091027;28;20405;-61
2023/05/09 02:52:10;;;;;;;3.80;3.40;;;;;;;20.38;69.42;100450.56;5073071;28;20163;-61
2023/05/09 02:54:36;;;;;;;4.33;3.50;;;;;;;20.38;69.78;100456.28;5073214;28;20277;-61
2023/05/09 02:57:01;;;;;;;4.13;3.73;;;;;;;20.38;69.46;100467.75;5072789;28;20440;-60
2023/05/09 02:59:27;;;;;;;5.67;3.53;;;;;;;20.38;69.68;100455.44;5071851;28;20183;-60
2023/05/09 03:01:52;;;;;;;4.40;3.37;;;;;;;20.38;69.59;100456.28;5069984;28;20763;-60
2023/05/09 03:04:18;;;;;;;4.87;3.47;;;;;;;20.37;69.85;100454.59;5070126;28;20638;-62
2023/05/09 03:06:44;;;;;;;4.20;3.40;;;;;;;20.37;69.54;100448.88;5071911;28;20233;-61
2023/05/09 03:09:10;;;;;;;3.90;3.30;;;;;;;20.37;69.60;100448.88;5069291;28;20700;-61
2023/05/09 03:11:57;;;;;;;4.10;3.57;;;;;;;20.38;69.49;100456.28;5071483;28;20191;-60
2023/05/09 03:14:22;;;;;;;3.80;3.30;;;;;;;20.37;69.66;100446.00;5050006;28;20234;-61
2023/05/09 03:16:48;;;;;;;5.70;3.57;;;;;;;20.37;69.19;100439.47;5050273;28;20446;-60
2023/05/09 03:19:13;;;;;;;4.00;3.33;;;;;;;20.36;69.32;100435.75;5062488;28;20175;-60
2023/05/09 03:21:39;;;;;;;6.63;3.67;;;;;;;20.37;69.51;100430.88;5084680;28;20862;-61
2023/05/09 03:24:06;;;;;;;4.00;3.60;;;;;;;20.37;69.16;100431.66;5090706;28;20177;-61
2023/05/09 03:26:31;;;;;;;4.00;3.23;;;;;;;20.37;69.37;100431.66;5080387;28;20180;-61
2023/05/09 03:28:57;;;;;;;3.80;3.30;;;;;;;20.37;69.24;100433.72;5070259;28;20421;-61
2023/05/09 03:31:23;;;;;;;10.60;3.73;;;;;;;20.37;69.73;100434.53;5070105;28;20171;-61
2023/05/09 03:33:48;;;;;;;4.60;3.70;;;;;;;20.37;69.46;100440.28;5071974;28;20602;-60
2023/05/09 03:36:14;;;;;;;4.57;4.07;;;;;;;20.35;69.54;100428.38;5069818;28;20994;-61
2023/05/09 03:38:39;;;;;;;3.90;3.50;;;;;;;20.36;69.46;100435.75;5069938;28;20699;-61
2023/05/09 03:41:05;;;;;;;3.30;2.97;;;;;;;20.36;69.50;100430.03;5071673;28;20195;-61
2023/05/09 03:43:30;;;;;;;5.00;3.63;;;;;;;20.36;69.26;100434.94;5074661;28;20527;-61
2023/05/09 03:45:55;;;;;;;6.53;3.77;;;;;;;20.37;69.15;100436.59;5069549;28;20167;-61
2023/05/09 03:48:21;;;;;;;3.77;3.30;;;;;;;20.36;69.41;100427.16;5084901;28;20190;-61
2023/05/09 03:50:46;;;;;;;4.10;3.40;;;;;;;20.37;69.33;100433.72;5090025;28;20170;-60
2023/05/09 03:53:12;;;;;;;3.70;3.17;;;;;;;20.35;69.27;100427.53;5067539;28;20189;-61
2023/05/09 03:55:37;;;;;;;4.40;3.37;;;;;;;20.36;69.57;100434.94;5089639;28;20841;-60
2023/05/09 03:58:03;;;;;;;4.10;3.30;;;;;;;20.36;69.44;100432.09;5090002;28;20806;-61
2023/05/09 04:00:28;;;;;;;3.87;3.37;;;;;;;20.37;69.51;100440.28;5085716;28;20494;-60
2023/05/09 04:02:54;;;;;;;3.30;2.90;;;;;;;20.36;69.03;100437.81;5086171;28;20680;-61
2023/05/09 04:05:19;;;;;;;3.60;3.10;;;;;;;20.35;69.46;100436.97;5071735;28;20248;-62
2023/05/09 04:07:44;;;;;;;3.60;3.10;;;;;;;20.35;69.58;100430.41;5068847;28;20287;-61
2023/05/09 04:10:10;;;;;;;3.90;3.10;;;;;;;20.35;69.65;100427.53;5067837;28;20626;-60
2023/05/09 04:12:35;;;;;;;3.70;3.23;;;;;;;20.35;69.35;100424.66;5075204;28;20274;-60
2023/05/09 04:15:01;;;;;;;3.47;3.10;;;;;;;20.36;68.94;100429.22;5068953;28;20230;-61
2023/05/09 04:17:26;;;;;;;4.80;3.10;;;;;;;20.36;69.31;100426.34;5071556;28;20186;-61
2023/05/09 04:19:52;;;;;;;5.30;3.20;;;;;;;20.34;69.25;100432.47;5072086;28;20171;-62
2023/05/09 04:22:17;;;;;;;3.40;2.83;;;;;;;20.35;69.46;100434.13;5069534;28;20175;-60
2023/05/09 04:24:43;;;;;;;3.83;3.03;;;;;;;20.35;69.16;100434.13;5069008;28;20176;-61
2023/05/09 04:27:08;;;;;;;3.93;3.03;;;;;;;20.34;69.37;100435.34;5074450;28;20638;-61
2023/05/09 04:29:34;;;;;;;3.10;2.67;;;;;;;20.34;69.53;100432.47;5073804;28;20594;-61
2023/05/09 04:32:00;;;;;;;4.70;3.17;;;;;;;20.35;69.03;100434.13;5057796;28;20936;-60
2023/05/09 04:34:26;;;;;;;3.40;3.00;;;;;;;20.36;68.84;100435.75;5073445;28;20692;-61
2023/05/09 04:36:52;;;;;;;4.00;3.10;;;;;;;20.35;69.07;100434.13;5073132;28;20452;-61
2023/05/09 04:39:18;;;;;;;3.20;2.63;;;;;;;20.35;69.33;100428.38;5076105;28;20494;-61
2023/05/09 04:41:46;;;;;;;3.83;3.00;;;;;;;20.33;69.19;100430.81;5073327;28;20262;-60
2023/05/09 04:44:12;;;;;;;3.67;3.03;;;;;;;20.34;69.51;100428.75;5077335;28;20273;-61
2023/05/09 04:46:37;;;;;;;4.63;2.87;;;;;;;20.34;69.05;100421.00;5072966;28;20489;-61
2023/05/09 04:49:03;;;;;;;3.70;3.00;;;;;;;20.35;69.22;100421.81;5073172;28;20163;-61
2023/05/09 04:51:28;;;;;;;4.03;2.83;;;;;;;20.34;69.28;100414.44;5075116;28;20658;-61
2023/05/09 04:53:54;;;;;;;3.50;2.93;;;;;;;20.34;69.31;100415.25;5073122;28;20184;-60
2023/05/09 04:56:20;;;;;;;7.20;3.47;;;;;;;20.34;69.16;100417.28;5078742;28;20232;-61
2023/05/09 04:58:46;;;;;;;3.73;3.07;;;;;;;20.35;69.16;100418.94;5093445;28;20170;-61
2023/05/09 05:01:11;;;;;;;3.10;2.80;;;;;;;20.34;68.96;100406.66;5085793;28;20448;-61
2023/05/09 05:03:36;;;;;;;3.17;2.70;;;;;;;20.35;69.16;100408.31;5072759;28;20183;-61
2023/05/09 05:06:02;;;;;;;3.63;2.87;;;;;;;20.35;68.95;100408.31;5075920;28;20179;-61
2023/05/09 05:08:27;;;;;;;6.13;2.90;;;;;;;20.35;69.08;100404.59;5074202;28;20202;-61
2023/05/09 05:10:53;;;;;;;3.50;2.87;;;;;;;20.34;69.46;100403.78;5071884;28;20659;-62
2023/05/09 05:13:20;;;;;;;3.37;2.83;;;;;;;20.34;69.19;100406.66;5073509;28;20178;-61
2023/05/09 05:15:45;;;;;;;3.80;3.33;;;;;;;20.34;68.97;100400.09;5073894;28;20218;-61
2023/05/09 05:18:11;;;;;;;3.10;2.70;;;;;;;20.34;69.20;100408.69;5074392;28;20447;-61
2023/05/09 05:20:36;;;;;;;3.87;3.03;;;;;;;20.36;69.18;100412.00;5053391;28;20245;-62
2023/05/09 05:23:02;;;;;;;3.30;2.50;;;;;;;20.35;69.46;100404.59;5037781;28;20209;-62
2023/05/09 05:25:27;;;;;;;3.13;2.83;;;;;;;20.34;69.02;100402.97;5074956;28;20237;-62
2023/05/09 05:27:52;;;;;;;3.53;3.00;;;;;;;20.33;68.99;100402.16;5072001;28;20167;-61
2023/05/09 05:30:21;;;;;;;3.27;2.77;;;;;;;20.33;69.19;100399.28;5073491;28;20190;-62
2023/05/09 05:32:46;;;;;;;3.03;2.57;;;;;;;20.32;68.78;100394.72;5071241;28;20627;-61
2023/05/09 05:35:12;;;;;;;3.63;2.70;;;;;;;20.33;69.02;100390.69;5071528;28;20463;-62
2023/05/09 05:37:38;;;;;;;3.83;3.37;;;;;;;20.33;69.00;100392.72;5070364;28;20686;-62
2023/05/09 05:40:04;;;;;;;4.60;2.70;;;;;;;20.34;68.98;100403.78;5080223;28;20186;-61
2023/05/09 05:42:30;;;;;;;3.07;2.47;;;;;;;20.34;69.42;100400.09;5044908;28;20428;-61
2023/05/09 05:44:56;;;;;;;3.17;2.60;;;;;;;20.33;69.15;100402.16;5072129;28;20904;-61
2023/05/09 05:47:21;;;;;;;3.77;3.37;;;;;;;20.33;69.15;100407.03;5069531;28;20170;-62
2023/05/09 05:49:47;;;;;;;3.33;2.80;;;;;;;20.33;68.90;100407.03;5069249;28;20179;-61
2023/05/09 05:52:13;;;;;;;3.77;3.20;;;;;;;20.33;69.39;100401.31;5076170;28;20183;-62
2023/05/09 05:54:38;;;;;;;3.53;2.90;;;;;;;20.32;69.04;100394.72;5071094;28;20174;-61
2023/05/09 05:57:04;;;;;;;3.40;2.70;;;;;;;20.33;69.07;100395.56;5071396;28;20194;-62
2023/05/09 05:59:29;;;;;;;4.60;2.80;;;;;;;20.32;69.01;100391.06;5076902;28;20187;-61
2023/05/09 06:01:55;;;;;;;3.40;2.97;;;;;;;20.32;69.09;100389.00;5071417;28;20220;-61
2023/05/09 06:04:20;;;;;;;3.30;3.00;;;;;;;20.33;69.00;100384.09;5077560;28;20186;-61
2023/05/09 06:06:46;;;;;;;8.43;2.77;;;;;;;20.36;69.05;100389.06;5079199;28;20179;-61
2023/05/09 06:09:11;;;;;;;7.27;4.40;;;;;;;20.55;69.38;100377.38;5039061;28;20202;-61
2023/05/09 06:11:38;;;;;;;19.50;14.00;;;;;;;20.81;71.90;100383.84;5089330;28;20178;-61
2023/05/09 06:14:03;;;;;;;24.97;18.70;;;;;;;21.04;73.75;100380.81;5071109;28;20182;-61
2023/05/09 06:16:28;;;;;;;26.03;18.07;;;;;;;20.95;73.74;100381.13;5063211;28;20465;-60
2023/05/09 06:18:54;;;;;;;24.53;16.60;;;;;;;20.76;73.82;100378.44;5051171;28;20181;-60
2023/05/09 06:21:19;;;;;;;19.17;15.77;;;;;;;20.63;73.19;100370.53;5069585;28;20236;-61
2023/05/09 06:23:45;;;;;;;19.33;14.77;;;;;;;20.65;73.32;100371.78;5085507;28;20198;-61
2023/05/09 06:26:11;;;;;;;21.87;15.20;;;;;;;20.67;73.54;100372.19;5089966;28;20163;-60
2023/05/09 06:28:36;;;;;;;23.00;15.23;;;;;;;20.66;72.69;100364.81;5067335;28;20178;-60
2023/05/09 06:31:02;;;;;;;19.57;14.17;;;;;;;20.69;73.91;100348.88;5053319;28;20226;-62
2023/05/09 06:33:27;;;;;;;21.33;13.60;;;;;;;20.72;73.67;100354.63;5067759;28;20190;-61
2023/05/09 06:35:54;;;;;;;18.37;13.77;;;;;;;20.71;74.04;100361.59;5069528;28;20195;-62
2023/05/09 06:38:19;;;;;;;22.40;14.20;;;;;;;20.72;74.27;100351.75;5068616;28;20190;-61
2023/05/09 06:40:45;;;;;;;18.20;13.13;;;;;;;20.72;73.56;100357.50;5070228;28;20440;-62
2023/05/09 06:43:10;;;;;;;14.13;11.70;;;;;;;20.73;73.49;100353.41;5051345;28;20170;-61
2023/05/09 06:45:36;;;;;;;18.67;13.20;;;;;;;20.72;73.65;100348.88;5068536;28;20179;-61
2023/05/09 06:48:01;;;;;;;19.10;12.50;;;;;;;20.74;74.33;100355.06;5073067;28;20665;-61
2023/05/09 06:50:27;;;;;;;22.83;12.53;;;;;;;20.79;73.80;100348.97;5059139;28;20190;-61
2023/05/09 06:52:52;;;;;;;21.13;11.67;;;;;;;20.82;73.78;100348.16;5070229;28;20189;-61
2023/05/09 06:55:18;;;;;;;15.80;10.80;;;;;;;20.81;74.40;100331.34;5069978;28;20195;-62
2023/05/09 06:57:43;;;;;;;15.57;11.63;;;;;;;20.79;74.13;100342.41;5069293;28;20186;-60
2023/05/09 07:00:09;;;;;;;20.73;10.63;;;;;;;20.80;74.39;100327.66;5064534;28;20210;-61
2023/05/09 07:02:35;;;;;;;12.57;10.07;;;;;;;20.81;74.18;100325.59;5085267;28;20202;-62
2023/05/09 07:05:00;;;;;;;14.70;9.97;;;;;;;20.84;73.75;100321.94;5068287;28;20875;-62
2023/05/09 07:07:25;;;;;;;15.10;9.63;;;;;;;20.81;73.61;100320.69;5067404;28;20203;-62
2023/05/09 07:09:51;;;;;;;16.40;10.00;;;;;;;20.81;73.72;100320.69;5076080;28;20228;-62
2023/05/09 07:12:16;;;;;;;10.37;8.27;;;;;;;20.78;73.88;100321.47;5082938;28;20174;-62
2023/05/09 07:14:42;;;;;;;13.23;8.60;;;;;;;20.74;74.07;100309.16;5074779;28;20215;-61
2023/05/09 07:17:07;;;;;;;10.73;7.60;;;;;;;20.72;74.28;100313.66;5050625;28;20172;-62
2023/05/09 07:19:33;;;;;;;10.20;7.47;;;;;;;20.71;74.13;100309.09;5039245;28;20179;-62
2023/05/09 07:21:58;;;;;;;14.03;7.00;;;;;;;20.69;73.86;100298.06;5073374;28;20486;-62
2023/05/09 07:24:24;;;;;;;8.67;6.70;;;;;;;20.69;73.04;100300.94;5051867;28;20182;-62
2023/05/09 07:26:49;;;;;;;7.70;6.37;;;;;;;20.73;73.00;100289.47;5070169;28;20171;-62
2023/05/09 07:29:16;;;;;;;8.77;5.77;;;;;;;20.74;72.43;100288.25;5070147;28;20167;-62
2023/05/09 07:31:41;;;;;;;8.67;6.77;;;;;;;20.73;72.20;100292.34;5054266;28;20730;-62
2023/05/09 07:34:07;;;;;;;13.70;6.17;;;;;;;20.70;71.99;100281.66;5051912;28;20437;-62
2023/05/09 07:36:33;;;;;;;7.50;5.50;;;;;;;20.69;72.01;100277.97;5071750;28;20206;-62
2023/05/09 07:38:59;;;;;;;6.37;5.10;;;;;;;20.70;72.22;100282.47;5035094;28;20187;-62
2023/05/09 07:41:25;;;;;;;8.13;4.80;;;;;;;20.72;72.09;100271.41;5076737;28;20935;-61
2023/05/09 07:43:51;;;;;;;6.03;4.80;;;;;;;20.71;71.40;100268.94;5071417;28;20183;-61
2023/05/09 07:46:16;;;;;;;7.60;5.00;;;;;;;20.72;71.75;100268.56;5061119;28;20425;-61
2023/05/09 07:48:42;;;;;;;10.23;5.70;;;;;;;20.72;71.61;100265.69;5059293;28;20191;-61
2023/05/09 07:51:07;;;;;;;8.10;5.03;;;;;;;20.72;72.22;100259.94;5032082;28;21020;-62
2023/05/09 07:53:33;;;;;;;8.47;4.80;;;;;;;20.74;72.40;100263.25;5069369;28;20197;-61
2023/05/09 07:55:59;;;;;;;10.47;4.67;;;;;;;20.76;72.39;100266.53;5088818;28;20216;-62
2023/05/09 07:58:24;;;;;;;6.70;4.90;;;;;;;20.76;72.45;100255.06;5083940;28;20306;-63
2023/05/09 08:00:50;;;;;;;7.93;4.70;;;;;;;20.76;72.17;100251.38;5062346;28;20462;-62
2023/05/09 08:03:15;;;;;;;5.70;4.30;;;;;;;20.75;72.42;100244.81;5068689;28;20171;-61
2023/05/09 08:05:41;;;;;;;10.03;5.30;;;;;;;20.75;72.42;100244.81;5068780;28;20198;-62
2023/05/09 08:08:06;;;;;;;6.03;4.33;;;;;;;20.76;71.86;100237.84;5069381;28;20225;-62
2023/05/09 08:10:32;;;;;;;8.30;4.60;;;;;;;20.76;72.26;100237.03;5071038;28;20206;-61
2023/05/09 08:12:58;;;;;;;5.50;4.07;;;;;;;20.76;72.10;100234.16;5070741;28;20228;-61
2023/05/09 08:15:23;;;;;;;5.43;4.07;;;;;;;20.76;72.11;100229.25;5052255;28;20321;-62
2023/05/09 08:17:48;;;;;;;6.27;3.40;;;;;;;20.77;71.74;100230.88;5070677;28;20193;-62
2023/05/09 08:20:14;;;;;;;9.57;4.27;;;;;;;20.76;71.89;100225.53;5050751;28;20171;-63
2023/05/09 08:22:39;;;;;;;6.87;4.00;;;;;;;20.75;71.72;100213.25;5050022;28;20209;-63
2023/05/09 08:25:06;;;;;;;6.27;3.93;;;;;;;20.76;71.79;100214.91;5069892;28;20174;-62
2023/05/09 08:27:32;;;;;;;6.43;3.70;;;;;;;20.76;71.91;100214.06;5088791;28;20189;-63
2023/05/09 08:29:57;;;;;;;7.03;3.60;;;;;;;20.76;72.00;100202.59;5087182;28;20405;-62
2023/05/09 08:32:22;;;;;;;5.30;3.60;;;;;;;20.74;71.97;100214.47;5083024;28;20239;-62
2023/05/09 08:34:48;;;;;;;7.03;4.10;;;;;;;20.76;71.68;100211.19;5087078;28;20167;-62
2023/05/09 08:37:13;;;;;;;5.63;3.33;;;;;;;20.76;71.90;100203.41;5069113;28;20187;-62
2023/05/09 08:39:39;;;;;;;5.43;3.10;;;;;;;20.75;71.88;100198.91;5072148;28;20189;-62
2023/05/09 08:42:04;;;;;;;5.63;3.57;;;;;;;20.76;71.55;100199.72;5070515;28;20175;-62
2023/05/09 08:44:30;;;;;;;5.53;3.90;;;;;;;20.75;71.85;100196.03;5050642;28;20205;-62
2023/05/09 08:46:59;;;;;;;5.27;3.33;;;;;;;20.75;71.78;100189.47;5080089;28;20178;-63
2023/05/09 08:49:25;;;;;;;6.27;3.60;;;;;;;20.75;71.93;100187.44;5089066;28;20415;-62
2023/05/09 08:51:51;;;;;;;5.17;3.50;;;;;;;20.74;71.69;100177.19;5084410;28;21286;-62
2023/05/09 08:54:17;;;;;;;4.67;3.33;;;;;;;20.73;71.60;100175.50;5070675;28;20183;-62
2023/05/09 08:56:42;;;;;;;4.20;3.37;;;;;;;20.75;71.67;100175.97;5071067;28;20207;-62
2023/05/09 08:59:08;;;;;;;4.27;3.20;;;;;;;20.75;71.55;100173.09;5085018;28;20432;-62
2023/05/09 09:01:34;;;;;;;4.67;3.63;;;;;;;20.76;71.50;100171.03;5089111;28;20155;-62
2023/05/09 09:04:00;;;;;;;7.30;3.00;;;;;;;20.75;71.66;100175.97;5083496;28;20364;-61
2023/05/09 09:06:27;;;;;;;5.40;3.30;;;;;;;20.76;71.57;100168.16;5059462;28;20504;-62
2023/05/09 09:08:53;;;;;;;5.13;2.80;;;;;;;20.76;71.70;100156.69;5067577;28;20222;-62
2023/05/09 09:11:21;;;;;;;3.90;2.97;;;;;;;20.75;71.26;100155.03;5067975;28;20397;-62
2023/05/09 09:13:47;;;;;;;6.50;3.90;;;;;;;20.74;71.30;100156.28;5053757;28;20564;-61
2023/05/09 09:16:16;;;;;;;3.13;2.60;;;;;;;20.74;71.55;100156.28;5061479;28;20985;-62
2023/05/09 09:18:42;;;;;;;5.50;3.47;;;;;;;20.75;71.60;100155.88;5074770;28;20630;-62
2023/05/09 09:21:11;;;;;;;3.53;2.77;;;;;;;20.73;71.20;100152.56;5088805;28;20447;-62
2023/05/09 09:23:38;;;;;;;3.40;2.63;;;;;;;20.76;71.28;100145.19;5093046;28;20268;-61
2023/05/09 09:26:06;;;;;;;3.73;2.77;;;;;;;20.74;71.36;100137.03;5074453;28;20430;-61
2023/05/09 09:28:32;;;;;;;8.13;3.20;;;;;;;20.74;71.09;100136.19;5075062;28;20499;-62
2023/05/09 09:30:57;;;;;;;6.03;3.20;;;;;;;20.72;71.22;100142.31;5054269;28;20406;-61
2023/05/09 09:33:24;;;;;;;3.80;3.07;;;;;;;20.72;71.64;100127.97;5073711;28;20447;-61
2023/05/09 09:35:50;;;;;;;3.77;2.80;;;;;;;20.72;71.26;100127.97;5071920;28;20245;-61
2023/05/09 09:38:25;;;;;;;3.23;2.53;;;;;;;20.74;71.19;100122.69;5071954;28;20398;-63
2023/05/09 09:40:50;;;;;;;7.33;3.17;;;;;;;20.73;71.73;100111.59;5071732;28;20416;-62
2023/05/09 09:43:16;;;;;;;6.20;3.13;;;;;;;20.74;71.20;100104.63;5083949;28;20507;-62
2023/05/09 09:45:41;;;;;;;5.03;3.07;;;;;;;20.75;71.39;100103.41;5092140;28;20238;-63
2023/05/09 09:48:07;;;;;;;3.80;2.90;;;;;;;20.74;71.31;100108.34;5079941;28;20193;-61
2023/05/09 09:50:32;;;;;;;4.50;3.00;;;;;;;20.74;71.24;100105.47;5092043;28;20175;-61
2023/05/09 09:52:59;;;;;;;3.73;2.50;;;;;;;20.76;71.21;100091.53;5080648;28;20186;-62
2023/05/09 09:55:25;;;;;;;4.67;2.97;;;;;;;20.74;71.04;100088.25;5070741;28;20202;-62
2023/05/09 09:57:50;;;;;;;4.87;3.10;;;;;;;20.74;70.99;100085.38;5072739;28;20444;-62
2023/05/09 10:00:18;;;;;;;4.30;2.90;;;;;;;20.75;71.06;100084.16;5072230;28;20208;-62
2023/05/09 10:02:48;;;;;;;3.80;3.10;;;;;;;20.74;70.94;100079.63;5055509;28;20736;-61
2023/05/09 10:05:24;;;;;;;7.03;3.07;;;;;;;20.74;71.11;100065.28;5079130;28;20457;-61
2023/05/09 10:07:57;;;;;;;4.20;2.97;;;;;;;20.75;71.22;100069.81;5071764;28;20799;-62
2023/05/09 10:10:25;;;;;;;4.80;2.50;;;;;;;20.75;71.17;100063.22;5071787;28;20419;-62
2023/05/09 10:12:51;;;;;;;4.93;3.50;;;;;;;20.76;70.85;100062.00;5071621;28;20439;-62
2023/05/09 10:15:20;;;;;;;4.30;2.80;;;;;;;20.73;70.98;100066.50;5052619;28;20488;-62
2023/05/09 10:17:47;;;;;;;3.27;2.60;;;;;;;20.73;70.74;100052.16;5053076;28;20405;-62
2023/05/09 10:20:12;;;;;;;5.10;2.93;;;;;;;20.75;71.22;100054.63;5074980;28;20444;-62
2023/05/09 10:22:38;;;;;;;9.93;3.20;;;;;;;20.75;70.89;100046.00;5069920;28;20472;-62
2023/05/09 10:25:05;;;;;;;4.40;2.90;;;;;;;20.75;70.98;100041.13;5069850;28;20159;-62
2023/05/09 10:27:33;;;;;;;4.63;3.13;;;;;;;20.74;70.92;100039.47;5039050;28;20266;-62
2023/05/09 10:30:06;;;;;;;3.60;2.70;;;;;;;20.73;71.00;100039.88;5053533;28;20463;-62
2023/05/09 10:33:06;;;;;;;3.50;2.50;;;;;;;20.73;70.95;100034.94;5037604;28;20448;-62
2023/05/09 10:35:45;;;;;;;4.87;3.00;;;;;;;20.72;70.95;100033.28;5021643;28;20560;-62
2023/05/09 10:38:11;;;;;;;4.30;2.87;;;;;;;20.74;71.18;100033.72;5031413;28;20803;-63
2023/05/09 10:40:36;;;;;;;4.00;2.90;;;;;;;20.73;70.69;100032.06;5072525;28;20417;-61
2023/05/09 10:43:02;;;;;;;5.10;2.67;;;;;;;20.74;71.00;100027.16;5082557;28;20450;-61
2023/05/09 10:45:27;;;;;;;4.17;3.10;;;;;;;20.73;70.78;100023.47;5051798;28;20182;-62
2023/05/09 10:47:55;;;;;;;2.90;2.40;;;;;;;20.75;70.77;100017.31;5033041;28;20160;-61
2023/05/09 10:50:21;;;;;;;5.30;2.50;;;;;;;20.75;71.08;100018.16;5025478;28;20244;-63
2023/05/09 10:53:09;;;;;;;3.33;2.90;;;;;;;20.74;70.83;100010.78;5068396;28;20427;-62
2023/05/09 10:55:55;;;;;;;3.70;2.87;;;;;;;20.74;70.60;100010.78;5072365;28;20555;-62
2023/05/09 10:58:20;;;;;;;3.57;2.60;;;;;;;20.74;71.05;100002.19;5038376;28;20406;-62
2023/05/09 11:00:47;;;;;;;4.10;2.43;;;;;;;20.75;70.61;99997.25;5072135;28;20483;-62
2023/05/09 11:03:12;;;;;;;3.50;2.83;;;;;;;20.74;70.54;99987.84;5035999;28;20167;-62
2023/05/09 11:05:38;;;;;;;3.70;2.70;;;;;;;20.74;70.82;99984.97;5054564;28;20499;-62
2023/05/09 11:08:24;;;;;;;3.30;2.40;;;;;;;20.76;70.88;99979.63;5070474;28;20206;-62
2023/05/09 11:10:49;;;;;;;3.30;2.43;;;;;;;20.75;70.92;99982.91;5052882;28;20198;-62
2023/05/09 11:13:19;;;;;;;4.60;2.83;;;;;;;20.75;70.69;99974.28;5080828;28;20923;-61
2023/05/09 11:16:03;;;;;;;4.47;2.67;;;;;;;20.74;70.91;99970.63;5044592;28;20273;-61
2023/05/09 11:18:29;;;;;;;3.60;2.67;;;;;;;20.73;70.42;99968.16;5023613;28;20419;-62
2023/05/09 11:20:54;;;;;;;5.93;2.73;;;;;;;20.73;70.83;99963.22;5055160;28;20433;-61
2023/05/09 11:23:28;;;;;;;3.50;2.50;;;;;;;20.73;70.48;99959.53;5052368;28;20333;-62